Detalii statie AGRIND TASNAD [0000197A]

Toti senzorii

Date Temperatura solului [C]Precipitatii [mm]Voltaj baterie [mV]Leaf Wetness [Min]HC Air temperature [C]HC Relative humidity [%]Punctul de roua [C]
medieminmaxsumaultimatimpmedieminmaxmediemediemin
2019-06-13 18:00:00 26.8 26.8 26.8 0 7264 32.59 32.4 32.79 38.24 16.1 15.8
2019-06-13 18:10:00 26.7 26.7 26.8 0 7274 32.39 32.34 32.45 39.62 16.6 16.3
2019-06-13 18:20:00 26.6 26.5 26.7 0 7264 32.17 32.11 32.24 39.63 16.4 16.4
2019-06-13 18:30:00 26.6 26.5 26.7 0 7264 32.61 32.58 32.65 36.89 15.7 15.6
2019-06-13 18:40:00 26.5 26.5 26.6 0 7236 31.83 31.77 31.9 40.28 16.3 16.2
2019-06-13 18:50:00 26.6 26.6 26.6 0 7264 31.55 31.43 31.67 42.96 17.2 17.1
2019-06-13 19:00:00 26.4 26.4 26.5 0 7236 30.84 30.63 31.06 47.35 18.1 18
2019-06-13 19:10:00 26.4 26.3 26.6 0 6982 30.3 30.22 30.38 49.48 18.3 18.1
2019-06-13 19:20:00 26.3 26.3 26.3 0 6992 30.03 30 30.07 52 18.9 18.8
2019-06-13 19:30:00 26.3 26.3 26.3 0 6992 29.81 29.66 29.97 55.07 19.6 19.3
2019-06-13 19:40:00 26.3 26.3 26.3 0 6992 29.23 29.12 29.35 58.47 20.1 20
2019-06-13 19:50:00 26.2 26.2 26.3 0 6972 28.8 28.66 28.94 62.18 20.6 20.4
2019-06-13 20:00:00 26.1 26.1 26.2 0 6972 28.35 28.27 28.44 66.02 21.2 21.2
2019-06-13 20:10:00 26 26 26 0 6922 27.74 27.62 27.86 70.38 21.6 21.6
2019-06-13 20:20:00 26 25.9 26.1 0 6922 27.43 27.42 27.45 69.37 21.1 21
2019-06-13 20:30:00 25.9 25.9 25.9 0 6932 27.28 27.17 27.4 69.25 20.9 20.9
2019-06-13 20:40:00 25.9 25.9 25.9 0 6932 26.85 26.79 26.91 69.84 20.7 20.7
2019-06-13 20:50:00 25.9 25.9 26 0 6932 26.55 26.52 26.59 70.55 20.6 20.6
2019-06-13 21:00:00 25.7 25.6 25.8 0 6922 26.48 26.36 26.6 70.27 20.5 20.4
2019-06-13 21:10:00 25.6 25.6 25.7 0 6884 26.37 26.35 26.39 67.6 19.6 19.4
2019-06-13 21:20:00 25.9 25.9 26 0 6914 26.34 26.32 26.37 64.87 18.9 18.7
2019-06-13 21:30:00 25.4 25.4 25.5 0 6914 26.33 26.29 26.37 63.77 18.7 18.7
2019-06-13 21:40:00 25.4 25.4 25.5 0 6922 26.11 26 26.23 66.07 19.1 18.6
2019-06-13 21:50:00 25.4 25.4 25.4 0 6914 24.76 24.63 24.9 74.04 19.8 19.7
2019-06-13 22:00:00 25.3 25.2 25.5 0 6922 24.47 24.34 24.61 70.19 18.6 18.3
2019-06-13 22:10:00 25 24.9 25.1 0 6884 25.6 25.48 25.73 63 17.8 17.8
2019-06-13 22:20:00 25.2 25.1 25.3 0 6904 25.57 25.56 25.58 63.03 17.8 17.7
2019-06-13 22:30:00 25 25 25.1 0 6904 25.11 24.73 25.49 69.1 18.8 18.3
2019-06-13 22:40:00 25 25 25 0 6914 23.92 23.72 24.13 78.24 19.8 19.8
2019-06-13 22:50:00 24.8 24.8 24.9 0 6922 23.23 23.02 23.45 81.89 19.9 19.8
2019-06-13 23:00:00 24.8 24.7 24.9 0 6914 22.55 22.55 22.56 87.28 20.2 20
2019-06-13 23:10:00 24.7 24.7 24.7 0 6884 22.81 22.77 22.85 87.16 20.4 20.4
2019-06-13 23:20:00 24.7 24.7 24.7 0 6904 22.15 21.95 22.35 89.69 20.3 20.2
2019-06-13 23:30:00 24.7 24.7 24.7 0 6904 21.63 21.51 21.76 94.1 20.5 20.5
2019-06-13 23:40:00 24.5 24.5 24.5 0 6914 21.35 21.32 21.39 95.2 20.5 20.5
2019-06-13 23:50:00 24.5 24.5 24.5 0 6914 21.55 21.52 21.58 94.91 20.6 20.5
2019-06-14 00:00:00 24.4 24.3 24.5 0 6914 21.48 21.39 21.57 95.04 20.5 20.3
2019-06-14 00:10:00 24.3 24.3 24.3 0 6854 20.89 20.75 21.03 96.08 20.1 20
2019-06-14 00:20:00 24.3 24.3 24.3 0 6884 21.28 21.03 21.54 93.77 20.1 20.1
2019-06-14 00:30:00 24.2 24.1 24.3 0 6894 21.22 21.18 21.27 93.57 20 20
2019-06-14 00:40:00 24.1 24.1 24.2 0 6904 21.08 21.04 21.12 94.13 19.9 19.9
2019-06-14 00:50:00 24.1 24.1 24.1 0 6904 20.98 20.94 21.02 94.49 19.9 19.9
2019-06-14 01:00:00 24.1 24.1 24.2 0 6904 20.99 20.87 21.12 94.34 19.8 19.8
2019-06-14 01:10:00 23.8 23.8 23.9 0 6874 20.95 20.87 21.04 93.26 19.6 19.6
2019-06-14 01:20:00 23.9 23.8 24 0 6894 20.49 20.47 20.51 94.94 19.5 19.4
2019-06-14 01:30:00 23.8 23.8 23.8 0 6894 20.73 20.7 20.77 95.47 19.9 19.9
2019-06-14 01:40:00 23.7 23.6 23.8 0 6904 20.7 20.68 20.73 95.41 19.8 19.8
2019-06-14 01:50:00 23.7 23.7 23.7 0 6904 20.85 20.78 20.92 94.56 19.8 19.7